Time;durP1;ratioP1;P1;durP2;ratioP2;P2;SDS_P1;SDS_P2;PMS_P1;PMS_P2;Temp;Humidity;BMP_temperature;BMP_pressure;BME280_temperature;BME280_humidity;BME280_pressure;Samples;Min_cycle;Max_cycle;Signal;HPM_P1;HPM_P2
2022/10/22 00:01:27;;;;;;;13.70;3.23;;;;;;;-145.18;100.00;46658.44;5072323;28;20070;-72
2022/10/22 00:03:52;;;;;;;18.00;4.20;;;;;;;-145.18;100.00;46658.44;5071965;28;20102;-72
2022/10/22 00:06:18;;;;;;;12.73;3.70;;;;;;;-145.18;100.00;46658.44;5071042;28;20428;-72
2022/10/22 00:08:43;;;;;;;15.50;4.20;;;;;;;-145.18;100.00;46658.44;5072285;28;20063;-72
2022/10/22 00:11:11;;;;;;;9.23;3.30;;;;;;;-145.18;100.00;46660.41;5072036;28;20254;-72
2022/10/22 00:13:36;;;;;;;11.17;3.80;;;;;;;-145.18;100.00;46660.41;5072107;28;20059;-72
2022/10/22 00:16:02;;;;;;;9.97;3.27;;;;;;;-145.18;100.00;46660.41;5071889;28;20032;-72
2022/10/22 00:18:27;;;;;;;10.13;3.10;;;;;;;-145.18;100.00;46658.44;5071694;28;20036;-72
2022/10/22 00:20:53;;;;;;;10.33;2.80;;;;;;;-145.18;100.00;46662.34;5072183;28;20036;-72
2022/10/22 00:23:18;;;;;;;12.23;2.90;;;;;;;-145.18;100.00;46652.59;5071805;28;20033;-72
2022/10/22 00:25:43;;;;;;;7.70;3.27;;;;;;;-145.18;100.00;46652.59;5071929;28;20428;-72
2022/10/22 00:28:10;;;;;;;11.67;3.13;;;;;;;-145.18;100.00;46658.44;5071357;28;20155;-72
2022/10/22 00:30:36;;;;;;;9.50;2.90;;;;;;;-145.18;100.00;46652.59;5071992;28;20098;-72
2022/10/22 00:33:01;;;;;;;10.20;3.13;;;;;;;-145.18;100.00;46650.63;5071427;28;20040;-71
2022/10/22 00:35:26;;;;;;;12.47;3.30;;;;;;;-145.18;100.00;46650.63;5071957;28;20068;-72
2022/10/22 00:37:52;;;;;;;10.43;2.93;;;;;;;-145.18;100.00;46660.41;5071524;28;20063;-72
2022/10/22 00:40:17;;;;;;;10.73;3.00;;;;;;;-145.18;100.00;46658.44;5071311;28;20039;-71
2022/10/22 00:42:42;;;;;;;7.93;2.87;;;;;;;-145.18;100.00;46656.50;5071228;28;20044;-71
2022/10/22 00:45:11;;;;;;;9.60;2.93;;;;;;;-145.18;100.00;46658.44;5070457;28;20070;-71
2022/10/22 00:47:49;;;;;;;9.03;3.20;;;;;;;-145.18;100.00;46656.50;5071305;28;20040;-71
2022/10/22 00:50:21;;;;;;;11.93;3.73;;;;;;;-145.18;100.00;46658.44;5071220;28;20393;-72
2022/10/22 00:52:46;;;;;;;11.03;3.20;;;;;;;-145.18;100.00;46658.44;5071240;28;20493;-72
2022/10/22 00:55:13;;;;;;;11.97;3.40;;;;;;;-145.18;100.00;46656.50;5071011;28;20067;-72
2022/10/22 00:57:39;;;;;;;14.93;3.83;;;;;;;-145.18;100.00;46660.41;5071105;28;20060;-72
2022/10/22 01:00:05;;;;;;;13.43;3.73;;;;;;;-145.18;100.00;46652.59;5070906;28;20033;-72
2022/10/22 01:02:31;;;;;;;8.83;3.47;;;;;;;-145.18;100.00;46658.44;5070778;28;20032;-72
2022/10/22 01:04:56;;;;;;;12.63;3.33;;;;;;;-145.18;100.00;46656.50;5071069;28;20563;-72
2022/10/22 01:07:23;;;;;;;8.83;3.47;;;;;;;-145.18;100.00;46654.53;5070788;28;20072;-72
2022/10/22 01:10:12;;;;;;;9.90;3.37;;;;;;;-145.18;100.00;46658.44;5070902;28;20456;-72
2022/10/22 01:13:14;;;;;;;10.90;3.80;;;;;;;-145.18;100.00;46654.53;5070919;28;20082;-72
2022/10/22 01:15:45;;;;;;;12.63;3.83;;;;;;;-145.18;100.00;46656.50;5071017;28;20024;-72
2022/10/22 01:18:21;;;;;;;17.03;4.20;;;;;;;-145.18;100.00;46650.63;5070592;28;20085;-72
2022/10/22 01:20:54;;;;;;;16.00;4.83;;;;;;;-145.18;100.00;46652.59;5070688;28;20028;-72
2022/10/22 01:23:31;;;;;;;11.57;4.60;;;;;;;-145.18;100.00;46654.53;5070495;28;20038;-72
2022/10/22 01:26:26;;;;;;;17.83;5.30;;;;;;;-145.18;100.00;46656.50;5070929;28;20033;-72
2022/10/22 01:29:11;;;;;;;16.03;4.83;;;;;;;-145.18;100.00;46654.53;5070537;28;20036;-72
2022/10/22 01:31:59;;;;;;;12.65;3.70;;;;;;;-145.18;100.00;46658.44;5070585;28;20039;-72
2022/10/22 01:34:27;;;;;;;10.17;4.23;;;;;;;-145.18;100.00;46654.53;5070471;28;20520;-72
2022/10/22 01:36:54;;;;;;;9.77;4.13;;;;;;;-145.18;100.00;46650.63;5070471;28;20020;-72
2022/10/22 01:39:22;;;;;;;11.53;3.70;;;;;;;-145.18;100.00;46654.53;5070428;28;20056;-72
2022/10/22 01:41:47;;;;;;;16.77;4.70;;;;;;;-145.18;100.00;46652.59;5070181;28;20039;-72
2022/10/22 01:44:42;;;;;;;11.13;4.63;;;;;;;-145.18;100.00;46656.50;5070114;28;20033;-72
2022/10/22 01:47:26;;;;;;;15.53;4.27;;;;;;;-145.18;100.00;46656.50;5056926;28;20036;-72
2022/10/22 01:50:12;;;;;;;11.23;4.17;;;;;;;-145.18;100.00;46656.50;5070469;28;20032;-72
2022/10/22 01:52:44;;;;;;;13.93;4.23;;;;;;;-145.18;100.00;46656.50;5070175;28;20070;-71
2022/10/22 01:55:18;;;;;;;10.23;3.77;;;;;;;-145.18;100.00;46656.50;5070304;28;20038;-72
2022/10/22 01:57:56;;;;;;;19.27;4.03;;;;;;;-145.18;100.00;46650.63;5069845;28;20427;-72
2022/10/22 02:00:22;;;;;;;14.77;4.43;;;;;;;-145.18;100.00;46652.59;5070144;28;20040;-72
2022/10/22 02:03:06;;;;;;;14.67;5.40;;;;;;;-145.18;100.00;46650.63;5069819;28;20029;-72
2022/10/22 02:05:42;;;;;;;8.63;4.20;;;;;;;-145.18;100.00;46656.50;5070388;28;20040;-72
2022/10/22 02:08:21;;;;;;;14.55;4.22;;;;;;;-145.18;100.00;46650.63;5070012;28;20157;-72
2022/10/22 02:10:48;;;;;;;12.87;4.07;;;;;;;-145.18;100.00;46650.63;5070448;28;20032;-72
2022/10/22 02:13:35;;;;;;;9.37;3.97;;;;;;;-145.18;100.00;46656.50;5069941;28;20024;-72
2022/10/22 02:16:02;;;;;;;13.97;3.97;;;;;;;-145.18;100.00;46658.44;5069789;28;20048;-72
2022/10/22 02:18:31;;;;;;;11.07;3.90;;;;;;;-145.18;100.00;46654.53;5069896;28;20033;-72
2022/10/22 02:20:58;;;;;;;13.40;4.20;;;;;;;-145.18;100.00;46654.53;5069978;28;20032;-71
2022/10/22 02:23:25;;;;;;;14.17;4.23;;;;;;;-145.18;100.00;46654.53;5069639;28;20056;-72
2022/10/22 02:25:58;;;;;;;16.37;4.70;;;;;;;-145.18;100.00;46658.44;5069945;28;20033;-72
2022/10/22 02:28:30;;;;;;;12.37;3.93;;;;;;;-145.18;100.00;46658.44;5069352;28;20048;-72
2022/10/22 02:31:05;;;;;;;11.47;4.27;;;;;;;-145.18;100.00;46654.53;5070135;28;20032;-72
2022/10/22 02:33:35;;;;;;;14.63;5.23;;;;;;;-145.18;100.00;46652.59;5069823;28;20024;-71
2022/10/22 02:36:02;;;;;;;10.97;4.03;;;;;;;-145.18;100.00;46656.50;5070087;28;20021;-72
2022/10/22 02:38:28;;;;;;;11.30;4.80;;;;;;;-145.18;100.00;46660.41;5069515;28;20039;-72
2022/10/22 02:40:54;;;;;;;16.63;4.57;;;;;;;-145.18;100.00;46660.41;5070079;28;20089;-72
2022/10/22 02:43:19;;;;;;;11.93;4.20;;;;;;;-145.18;100.00;46654.53;5069752;28;20029;-72
2022/10/22 02:45:45;;;;;;;10.47;4.13;;;;;;;-145.18;100.00;46654.53;5068795;28;20025;-72
2022/10/22 02:48:11;;;;;;;10.33;4.17;;;;;;;-145.18;100.00;46652.59;5069434;28;20021;-72
2022/10/22 02:50:36;;;;;;;12.20;4.20;;;;;;;-145.18;100.00;46658.44;5069748;28;20044;-72
2022/10/22 02:53:02;;;;;;;15.90;4.50;;;;;;;-145.18;100.00;46656.50;5069640;28;20521;-72
2022/10/22 02:55:28;;;;;;;10.90;4.50;;;;;;;-145.18;100.00;46654.53;5069980;28;20381;-72
2022/10/22 02:57:53;;;;;;;15.87;4.73;;;;;;;-145.18;100.00;46658.44;5069564;28;20051;-72
2022/10/22 03:02:59;;;;;;;11.40;5.13;;;;;;;-145.18;100.00;46656.50;5163776;22;20445;-73
2022/10/22 03:05:24;;;;;;;17.73;5.80;;;;;;;-145.18;100.00;46656.50;5033973;28;20079;-72
2022/10/22 03:07:49;;;;;;;7.43;3.70;;;;;;;-145.18;100.00;46656.50;5029306;28;20061;-72
2022/10/22 03:10:15;;;;;;;11.90;4.57;;;;;;;-145.18;100.00;46654.53;5032464;28;20037;-72
2022/10/22 03:12:40;;;;;;;12.93;5.13;;;;;;;-145.18;100.00;46658.44;5031800;28;20030;-72
2022/10/22 03:15:06;;;;;;;15.20;5.00;;;;;;;-145.18;100.00;46656.50;5033648;28;20037;-73
2022/10/22 03:17:31;;;;;;;12.17;4.30;;;;;;;-145.18;100.00;46656.50;5033040;28;20030;-72
2022/10/22 03:19:56;;;;;;;13.17;4.40;;;;;;;-145.18;100.00;46658.44;5033215;28;20104;-72
2022/10/22 03:22:26;;;;;;;18.67;5.10;;;;;;;-145.18;100.00;46658.44;5033217;28;20029;-72
2022/10/22 03:24:54;;;;;;;11.43;3.83;;;;;;;-145.18;100.00;46654.53;5033215;28;20405;-72
2022/10/22 03:27:20;;;;;;;15.03;3.90;;;;;;;-145.18;100.00;46650.63;5033103;28;20029;-72
2022/10/22 03:29:49;;;;;;;18.67;5.27;;;;;;;-145.18;100.00;46646.72;5033138;28;20038;-72
2022/10/22 03:32:14;;;;;;;10.20;4.07;;;;;;;-145.18;100.00;46654.53;5033052;28;20504;-72
2022/10/22 03:34:39;;;;;;;12.03;3.83;;;;;;;-145.18;100.00;46656.50;5031531;28;20060;-72
2022/10/22 03:37:05;;;;;;;12.90;4.60;;;;;;;-145.18;100.00;46658.44;5032954;28;20037;-72
2022/10/22 03:39:33;;;;;;;30.63;4.73;;;;;;;-145.18;100.00;46656.50;5033124;28;20033;-72
2022/10/22 03:42:00;;;;;;;14.33;4.30;;;;;;;-145.18;100.00;46656.50;5032809;28;20038;-72
2022/10/22 03:44:26;;;;;;;10.73;3.90;;;;;;;-145.18;100.00;46660.41;5032896;28;20441;-72
2022/10/22 03:46:52;;;;;;;10.67;3.60;;;;;;;-145.18;100.00;46654.53;5032641;28;20041;-73
2022/10/22 03:49:17;;;;;;;8.47;3.77;;;;;;;-145.18;100.00;46654.53;5033004;28;20091;-72
2022/10/22 03:51:42;;;;;;;16.60;4.30;;;;;;;-145.18;100.00;46654.53;5032389;28;20038;-72
2022/10/22 03:54:08;;;;;;;15.03;4.77;;;;;;;-145.18;100.00;46658.44;5032736;28;20120;-72
2022/10/22 03:56:33;;;;;;;12.67;4.23;;;;;;;-145.18;100.00;46656.50;5032537;28;20474;-73
2022/10/22 03:59:00;;;;;;;12.13;4.53;;;;;;;-145.18;100.00;46650.63;5032557;28;20449;-72
2022/10/22 04:01:27;;;;;;;10.30;3.90;;;;;;;-145.18;100.00;46656.50;5032661;28;20041;-72
2022/10/22 04:03:53;;;;;;;12.70;4.40;;;;;;;-145.18;100.00;46658.44;5052000;28;20052;-72
2022/10/22 04:06:18;;;;;;;12.07;4.20;;;;;;;-145.18;100.00;46656.50;5052775;28;20527;-72
2022/10/22 04:08:44;;;;;;;10.60;4.17;;;;;;;-145.18;100.00;46652.59;5052035;28;20061;-72
2022/10/22 04:11:12;;;;;;;15.93;5.20;;;;;;;-145.18;100.00;46654.53;5052505;28;20037;-72
2022/10/22 04:13:37;;;;;;;9.87;3.77;;;;;;;-145.18;100.00;46658.44;5052069;28;20037;-72
2022/10/22 04:16:15;;;;;;;11.23;4.30;;;;;;;-145.18;100.00;46658.44;5052621;28;20041;-72
2022/10/22 04:18:42;;;;;;;16.80;4.83;;;;;;;-145.18;100.00;46652.59;5051697;28;20033;-72
2022/10/22 04:21:09;;;;;;;13.50;4.00;;;;;;;-145.18;100.00;46648.69;5051922;28;20424;-72
2022/10/22 04:23:35;;;;;;;18.20;4.43;;;;;;;-145.18;100.00;46656.50;5051875;28;20111;-72
2022/10/22 04:26:04;;;;;;;15.47;4.37;;;;;;;-145.18;100.00;46654.53;5052485;28;20029;-72
2022/10/22 04:28:29;;;;;;;11.87;5.10;;;;;;;-145.18;100.00;46654.53;5051727;28;20037;-72
2022/10/22 04:30:55;;;;;;;13.37;4.33;;;;;;;-145.18;100.00;46658.44;5052006;28;20060;-72
2022/10/22 04:33:20;;;;;;;10.73;4.57;;;;;;;-145.18;100.00;46656.50;5051587;28;20075;-72
2022/10/22 04:35:46;;;;;;;13.80;4.73;;;;;;;-145.18;100.00;46652.59;5051841;28;20033;-72
2022/10/22 04:38:12;;;;;;;12.40;4.53;;;;;;;-145.18;100.00;46656.50;5051758;28;20114;-72
2022/10/22 04:40:37;;;;;;;12.03;4.80;;;;;;;-145.18;100.00;46650.63;5056619;28;20424;-72
2022/10/22 04:43:03;;;;;;;17.40;4.83;;;;;;;-145.18;100.00;46656.50;5059604;28;20040;-72
2022/10/22 04:45:28;;;;;;;16.30;5.67;;;;;;;-145.18;100.00;46660.41;5060866;28;20526;-72
2022/10/22 04:47:54;;;;;;;21.57;5.83;;;;;;;-145.18;100.00;46654.53;5044360;28;20040;-72
2022/10/22 04:50:19;;;;;;;13.60;4.13;;;;;;;-145.18;100.00;46652.59;5051712;28;20033;-72
2022/10/22 04:52:44;;;;;;;16.13;4.43;;;;;;;-145.18;100.00;46656.50;5051169;28;20037;-72
2022/10/22 04:55:10;;;;;;;19.17;5.83;;;;;;;-145.18;100.00;46648.69;5051326;28;20040;-72
2022/10/22 04:57:35;;;;;;;17.40;4.40;;;;;;;-145.18;100.00;46654.53;5051194;28;20032;-72
2022/10/22 05:00:00;;;;;;;14.70;4.77;;;;;;;-145.18;100.00;46652.59;5033727;28;20033;-72
2022/10/22 05:02:26;;;;;;;12.27;4.50;;;;;;;-145.18;100.00;46656.50;5030505;28;20394;-72
2022/10/22 05:04:51;;;;;;;17.40;5.07;;;;;;;-145.18;100.00;46658.44;5045133;28;20044;-72
2022/10/22 05:07:17;;;;;;;11.73;4.57;;;;;;;-145.18;100.00;46654.53;5053070;28;20170;-72
2022/10/22 05:09:43;;;;;;;11.90;3.93;;;;;;;-145.18;100.00;46658.44;5071097;28;20025;-72
2022/10/22 05:12:08;;;;;;;15.20;4.37;;;;;;;-145.18;100.00;46658.44;5070979;28;20107;-72
2022/10/22 05:14:33;;;;;;;20.30;4.30;;;;;;;-145.18;100.00;46654.53;5070892;28;20067;-72
2022/10/22 05:16:59;;;;;;;16.33;4.97;;;;;;;-145.18;100.00;46654.53;5070862;28;20028;-72
2022/10/22 05:19:29;;;;;;;12.77;4.00;;;;;;;-145.18;100.00;46658.44;5071017;28;20086;-72
2022/10/22 05:22:00;;;;;;;13.30;4.27;;;;;;;-145.18;100.00;46656.50;5070556;28;20068;-72
2022/10/22 05:24:27;;;;;;;16.67;4.40;;;;;;;-145.18;100.00;46656.50;5070874;28;20025;-72
2022/10/22 05:26:54;;;;;;;10.87;3.93;;;;;;;-145.18;100.00;46654.53;5070446;28;20481;-72
2022/10/22 05:29:21;;;;;;;12.97;3.80;;;;;;;-145.18;100.00;46652.59;5070608;28;20056;-72
2022/10/22 05:31:46;;;;;;;14.00;4.30;;;;;;;-145.18;100.00;46658.44;5066611;28;20041;-72
2022/10/22 05:34:12;;;;;;;12.00;3.90;;;;;;;-145.18;100.00;46656.50;5070461;28;20064;-72
2022/10/22 05:36:38;;;;;;;16.93;5.27;;;;;;;-145.18;100.00;46658.44;5052514;28;20040;-73
2022/10/22 05:39:04;;;;;;;13.77;4.20;;;;;;;-145.18;100.00;46656.50;5070566;28;20064;-72
2022/10/22 05:41:29;;;;;;;21.23;4.30;;;;;;;-145.18;100.00;46654.53;5060076;28;20069;-72
2022/10/22 05:43:56;;;;;;;19.97;4.73;;;;;;;-145.18;100.00;46648.69;5060916;28;20033;-73
2022/10/22 05:46:24;;;;;;;21.13;4.30;;;;;;;-145.18;100.00;46654.53;5058121;28;20393;-73
2022/10/22 05:48:54;;;;;;;13.23;4.47;;;;;;;-145.18;100.00;46654.53;5059764;28;20024;-72
2022/10/22 05:51:20;;;;;;;11.97;3.70;;;;;;;-145.18;100.00;46656.50;5053113;28;20025;-72
2022/10/22 05:53:54;;;;;;;18.13;5.07;;;;;;;-145.18;100.00;46650.63;5049943;28;20076;-72
2022/10/22 05:56:20;;;;;;;12.53;3.70;;;;;;;-145.18;100.00;46654.53;5050488;28;20032;-72
2022/10/22 05:58:46;;;;;;;13.17;3.47;;;;;;;-145.18;100.00;46656.50;5050071;28;20057;-73
2022/10/22 06:01:17;;;;;;;13.30;3.30;;;;;;;-145.18;100.00;46654.53;5062273;28;20118;-73
2022/10/22 06:03:43;;;;;;;14.17;4.33;;;;;;;-145.18;100.00;46662.34;5069353;28;20048;-73
2022/10/22 06:06:21;;;;;;;11.53;3.50;;;;;;;-145.18;100.00;46656.50;5070425;28;20048;-73
2022/10/22 06:08:49;;;;;;;17.67;4.30;;;;;;;-145.18;100.00;46658.44;5069583;28;20094;-73
2022/10/22 06:11:16;;;;;;;12.70;3.50;;;;;;;-145.18;100.00;46654.53;5070241;28;20024;-72
2022/10/22 06:13:43;;;;;;;12.03;3.40;;;;;;;-145.18;100.00;46656.50;5069610;28;20425;-73
2022/10/22 06:16:08;;;;;;;11.33;3.70;;;;;;;-145.18;100.00;46662.34;5070175;28;20033;-72
2022/10/22 06:18:34;;;;;;;15.00;3.20;;;;;;;-145.18;100.00;46658.44;5069874;28;20594;-73
2022/10/22 06:21:04;;;;;;;14.97;4.00;;;;;;;-145.18;100.00;46656.50;5069929;28;20072;-72
2022/10/22 06:23:30;;;;;;;17.33;4.20;;;;;;;-145.18;100.00;46660.41;5069835;28;20036;-72
2022/10/22 06:25:57;;;;;;;13.73;3.80;;;;;;;-145.18;100.00;46658.44;5070247;28;20033;-73
2022/10/22 06:28:22;;;;;;;16.60;3.67;;;;;;;-145.18;100.00;46658.44;5069898;28;20119;-73
2022/10/22 06:30:48;;;;;;;12.73;3.87;;;;;;;-145.18;100.00;46654.53;5069997;28;20418;-72
2022/10/22 06:33:13;;;;;;;13.53;3.37;;;;;;;-145.18;100.00;46650.63;5070021;28;20028;-73
2022/10/22 06:35:38;;;;;;;18.57;3.77;;;;;;;-145.18;100.00;46658.44;5080573;28;20031;-73
2022/10/22 06:38:05;;;;;;;11.73;3.33;;;;;;;-145.18;100.00;46654.53;5089689;28;20664;-73
2022/10/22 06:40:31;;;;;;;12.97;3.17;;;;;;;-145.18;100.00;46656.50;5072654;28;20028;-72
2022/10/22 06:43:00;;;;;;;14.03;3.83;;;;;;;-145.18;100.00;46660.41;5065496;28;20036;-72
2022/10/22 06:45:26;;;;;;;12.07;3.50;;;;;;;-145.18;100.00;46660.41;5073489;28;20032;-72
2022/10/22 06:47:52;;;;;;;8.70;3.30;;;;;;;-145.18;100.00;46658.44;5073065;28;20378;-72
2022/10/22 06:50:18;;;;;;;10.37;3.40;;;;;;;-145.18;100.00;46656.50;5073897;28;20111;-72
2022/10/22 06:52:43;;;;;;;22.00;3.40;;;;;;;-145.18;100.00;46654.53;5063308;28;20471;-72
2022/10/22 06:55:09;;;;;;;9.70;3.30;;;;;;;-145.18;100.00;46660.41;5069678;28;20103;-72
2022/10/22 06:57:35;;;;;;;16.70;3.47;;;;;;;-145.18;100.00;46658.44;5064704;28;20037;-73
2022/10/22 07:00:00;;;;;;;12.23;3.43;;;;;;;-145.18;100.00;46658.44;5068949;28;20033;-73
2022/10/22 07:02:25;;;;;;;14.70;4.00;;;;;;;-145.18;100.00;46660.41;5053578;28;20053;-73
2022/10/22 07:04:51;;;;;;;11.03;4.10;;;;;;;-145.18;100.00;46666.25;5056040;28;20060;-73
2022/10/22 07:07:16;;;;;;;14.90;3.17;;;;;;;-145.18;100.00;46660.41;5052404;28;20106;-72
2022/10/22 07:09:44;;;;;;;15.80;3.37;;;;;;;-145.18;100.00;46662.34;5067407;28;20032;-73
2022/10/22 07:12:10;;;;;;;24.40;3.13;;;;;;;-145.18;100.00;46670.16;5053807;28;20036;-73
2022/10/22 07:14:35;;;;;;;15.40;3.47;;;;;;;-145.18;100.00;46662.34;5063506;28;20400;-73
2022/10/22 07:17:01;;;;;;;10.43;2.47;;;;;;;-145.18;100.00;46660.41;5072122;28;20086;-72
2022/10/22 07:19:26;;;;;;;13.50;3.17;;;;;;;-145.18;100.00;46664.31;5071716;28;20075;-72
2022/10/22 07:21:52;;;;;;;11.40;2.63;;;;;;;-145.18;100.00;46664.31;5071831;28;20055;-72
2022/10/22 07:24:17;;;;;;;11.87;3.03;;;;;;;-145.18;100.00;46668.22;5070484;28;20082;-73
2022/10/22 07:26:42;;;;;;;13.17;2.97;;;;;;;-145.18;100.00;46668.22;5051991;28;20043;-73
2022/10/22 07:29:08;;;;;;;16.47;3.57;;;;;;;-145.18;100.00;46668.22;5053658;28;20060;-72
2022/10/22 07:31:34;;;;;;;11.70;3.47;;;;;;;-145.18;100.00;46662.34;5071510;28;20040;-73
2022/10/22 07:33:59;;;;;;;13.77;2.50;;;;;;;-145.18;100.00;46672.13;5063787;28;20029;-73
2022/10/22 07:36:25;;;;;;;11.67;2.70;;;;;;;-145.18;100.00;46666.25;5071315;28;20063;-73
2022/10/22 07:38:58;;;;;;;16.90;3.03;;;;;;;-145.18;100.00;46666.25;5053765;28;20107;-73
2022/10/22 07:41:24;;;;;;;13.90;2.97;;;;;;;-145.18;100.00;46668.22;5072161;28;20043;-73
2022/10/22 07:43:49;;;;;;;14.77;3.10;;;;;;;-145.18;100.00;46666.25;5071716;28;20059;-73
2022/10/22 07:46:15;;;;;;;15.03;2.77;;;;;;;-145.18;100.00;46672.13;5054653;28;20025;-73
2022/10/22 07:48:40;;;;;;;13.23;2.70;;;;;;;-145.18;100.00;46674.06;5051497;28;20100;-72
2022/10/22 07:51:06;;;;;;;13.37;3.23;;;;;;;-145.18;100.00;46668.22;5067959;28;20477;-73
2022/10/22 07:53:32;;;;;;;19.50;3.37;;;;;;;-145.18;100.00;46676.03;5072005;28;20032;-71
2022/10/22 07:55:58;;;;;;;16.97;2.83;;;;;;;-145.18;100.00;46677.97;5071327;28;20404;-72
2022/10/22 07:58:23;;;;;;;8.67;2.73;;;;;;;-145.18;100.00;46681.88;5070761;28;20043;-73
2022/10/22 08:00:49;;;;;;;15.47;2.80;;;;;;;-145.18;100.00;46676.03;5072060;28;20052;-72
2022/10/22 08:03:16;;;;;;;15.60;3.03;;;;;;;-145.18;100.00;46679.94;5071815;28;20076;-72
2022/10/22 08:05:44;;;;;;;15.13;3.13;;;;;;;-145.18;100.00;46672.13;5071696;28;20501;-72
2022/10/22 08:08:11;;;;;;;12.23;2.63;;;;;;;-145.18;100.00;46679.94;5071915;28;20035;-72
2022/10/22 08:10:36;;;;;;;10.80;2.13;;;;;;;-145.18;100.00;46676.03;5053680;28;20471;-72
2022/10/22 08:13:02;;;;;;;15.87;3.10;;;;;;;-145.18;100.00;46679.94;5071865;28;20028;-73
2022/10/22 08:15:28;;;;;;;11.07;2.10;;;;;;;-145.18;100.00;46685.78;5067001;28;20065;-72
2022/10/22 08:17:53;;;;;;;11.50;2.57;;;;;;;-145.18;100.00;46685.78;5071169;28;20064;-73
2022/10/22 08:20:19;;;;;;;12.07;2.83;;;;;;;-145.18;100.00;46681.88;5071814;28;20435;-72
2022/10/22 08:22:44;;;;;;;10.97;2.67;;;;;;;-145.18;100.00;46683.84;5071553;28;20036;-72
2022/10/22 08:25:10;;;;;;;21.63;3.63;;;;;;;-145.18;100.00;46683.84;5071620;28;20473;-72
2022/10/22 08:27:36;;;;;;;15.70;3.23;;;;;;;-145.18;100.00;46683.84;5071585;28;20043;-72
2022/10/22 08:30:03;;;;;;;14.37;2.73;;;;;;;-145.18;100.00;46687.75;5071698;28;20401;-72
2022/10/22 08:32:28;;;;;;;13.23;2.87;;;;;;;-145.18;100.00;46685.78;5071873;28;20040;-73
2022/10/22 08:34:54;;;;;;;12.70;2.90;;;;;;;-145.18;100.00;46681.88;5070946;28;20553;-72
2022/10/22 08:37:19;;;;;;;12.97;2.73;;;;;;;-145.18;100.00;46687.75;5071451;28;20112;-72
2022/10/22 08:39:44;;;;;;;10.43;2.40;;;;;;;-145.18;100.00;46685.78;5078770;28;20036;-72
2022/10/22 08:43:11;;;;;;;11.67;2.40;;;;;;;-145.18;100.00;46689.69;5071187;28;20040;-72
2022/10/22 08:45:37;;;;;;;14.70;3.00;;;;;;;-145.18;100.00;46689.69;4947639;28;20141;-72
2022/10/22 08:48:30;;;;;;;11.57;2.17;;;;;;;-145.18;100.00;46691.66;5067523;28;20365;-72
2022/10/22 08:50:56;;;;;;;16.13;2.77;;;;;;;-145.18;100.00;46689.69;5071256;28;20052;-72
2022/10/22 08:53:40;;;;;;;13.30;2.43;;;;;;;-145.18;100.00;46691.66;5071182;28;20063;-73
2022/10/22 08:56:06;;;;;;;10.47;2.37;;;;;;;-145.18;100.00;46689.69;5070974;28;20085;-72
2022/10/22 08:58:49;;;;;;;18.33;3.63;;;;;;;-145.18;100.00;46687.75;5070915;28;20048;-73
2022/10/22 09:01:46;;;;;;;12.20;2.67;;;;;;;-145.18;100.00;46687.75;5071291;28;20055;-72
2022/10/22 09:04:20;;;;;;;12.30;2.30;;;;;;;-145.18;100.00;46689.69;5071078;28;20210;-72
2022/10/22 09:06:46;;;;;;;12.00;3.20;;;;;;;-145.18;100.00;46689.69;5069952;28;20063;-73
2022/10/22 09:09:17;;;;;;;14.97;2.13;;;;;;;-145.18;100.00;46689.69;5066937;28;20485;-73
2022/10/22 09:11:46;;;;;;;11.57;3.03;;;;;;;-145.18;100.00;46689.69;5067891;28;20068;-73
2022/10/22 09:14:15;;;;;;;14.23;3.03;;;;;;;-145.18;100.00;46691.66;5069688;28;20143;-73
2022/10/22 09:17:02;;;;;;;11.63;2.50;;;;;;;-145.18;100.00;46691.66;5070707;28;20586;-73
2022/10/22 09:19:53;;;;;;;15.47;2.50;;;;;;;-145.18;100.00;46687.75;5071042;28;20075;-73
2022/10/22 09:22:38;;;;;;;18.43;2.67;;;;;;;-145.18;100.00;46689.69;5071073;28;20040;-73
2022/10/22 09:25:22;;;;;;;11.52;2.35;;;;;;;-145.18;100.00;46693.59;5071032;28;20514;-73
2022/10/22 09:27:49;;;;;;;10.47;2.27;;;;;;;-145.18;100.00;46691.66;5070189;28;20630;-73
2022/10/22 09:30:17;;;;;;;13.37;2.60;;;;;;;-145.18;100.00;46683.84;5070768;28;20572;-73
2022/10/22 09:32:43;;;;;;;8.70;2.40;;;;;;;-145.18;100.00;46693.59;5052597;28;20031;-73
2022/10/22 09:35:12;;;;;;;12.20;2.77;;;;;;;-145.18;100.00;46687.75;5062659;28;20040;-73
2022/10/22 09:37:50;;;;;;;13.57;2.87;;;;;;;-145.18;100.00;46689.69;5084623;28;20123;-73
2022/10/22 09:40:17;;;;;;;13.43;2.40;;;;;;;-145.18;100.00;46689.69;5066397;28;20036;-73
2022/10/22 09:42:44;;;;;;;14.47;2.60;;;;;;;-145.18;100.00;46687.75;5060994;28;20517;-73
2022/10/22 09:45:23;;;;;;;10.77;3.13;;;;;;;-145.18;100.00;46689.69;5069745;28;20047;-73
2022/10/22 09:48:01;;;;;;;11.57;2.47;;;;;;;-145.18;100.00;46683.84;5051462;28;20067;-73
2022/10/22 09:50:42;;;;;;;9.33;1.77;;;;;;;-145.18;100.00;46681.88;5054764;28;20453;-73
2022/10/22 09:53:20;;;;;;;13.63;2.43;;;;;;;-145.18;100.00;46670.16;5054345;28;20033;-74
2022/10/22 09:55:55;;;;;;;12.07;2.20;;;;;;;-145.18;100.00;46650.63;5056175;28;20024;-74
2022/10/22 09:58:20;;;;;;;12.38;2.03;;;;;;;-145.18;100.00;46629.13;5059195;28;20017;-74
2022/10/22 10:00:58;;;;;;;10.77;2.03;;;;;;;-145.18;100.00;46617.41;5058090;28;20052;-74
2022/10/22 10:03:26;;;;;;;11.83;2.63;;;;;;;-145.18;100.00;46582.25;5060147;28;20060;-73
2022/10/22 10:05:55;;;;;;;9.50;2.03;;;;;;;-145.18;100.00;46578.34;5050210;28;20085;-74
2022/10/22 10:08:21;;;;;;;13.77;2.80;;;;;;;-145.18;100.00;46570.53;5050360;28;20020;-74
2022/10/22 10:10:51;;;;;;;13.87;3.00;;;;;;;-145.18;100.00;46566.63;5050208;28;20025;-74
2022/10/22 10:13:22;;;;;;;16.87;3.53;;;;;;;-145.18;100.00;46572.50;5061086;28;20114;-74
2022/10/22 10:15:56;;;;;;;10.93;2.23;;;;;;;-145.18;100.00;46568.59;5065359;28;20066;-74
2022/10/22 10:18:50;;;;;;;15.53;2.43;;;;;;;-145.18;100.00;46578.34;5070278;28;20377;-74
2022/10/22 10:21:47;;;;;;;12.60;2.33;;;;;;;-145.18;100.00;46588.13;5069930;28;20545;-74
2022/10/22 10:24:34;;;;;;;11.93;2.23;;;;;;;-145.18;100.00;46582.25;5041278;28;20047;-74
2022/10/22 10:27:06;;;;;;;20.07;2.90;;;;;;;-145.18;100.00;46566.63;5066079;28;20028;-74
2022/10/22 10:29:37;;;;;;;10.47;2.60;;;;;;;-145.18;100.00;46566.63;5051249;28;20016;-74
2022/10/22 10:32:21;;;;;;;7.70;2.00;;;;;;;-145.18;100.00;46568.59;5070714;28;20476;-74
2022/10/22 10:35:05;;;;;;;10.80;2.13;;;;;;;-145.18;100.00;46560.78;5069879;28;20489;-74
2022/10/22 10:37:44;;;;;;;11.53;2.73;;;;;;;-145.18;100.00;46572.50;5070184;28;20024;-74
2022/10/22 10:40:36;;;;;;;11.27;2.27;;;;;;;-145.18;100.00;46588.13;5070277;28;20035;-74
2022/10/22 10:43:12;;;;;;;9.90;2.27;;;;;;;-145.18;100.00;46590.06;5070171;28;20086;-74
2022/10/22 10:45:43;;;;;;;15.63;3.30;;;;;;;-145.18;100.00;46586.16;5072625;28;20024;-74
2022/10/22 10:48:31;;;;;;;17.00;2.17;;;;;;;-145.18;100.00;46590.06;5089419;28;20040;-74
2022/10/22 10:51:18;;;;;;;15.27;2.43;;;;;;;-145.18;100.00;46590.06;5078429;28;20024;-74
2022/10/22 10:54:12;;;;;;;14.47;2.20;;;;;;;-145.18;100.00;46578.34;5063880;28;20028;-74
2022/10/22 10:56:46;;;;;;;20.37;2.33;;;;;;;-145.18;100.00;46572.50;5066081;28;20504;-74
2022/10/22 10:59:48;;;;;;;18.43;2.80;;;;;;;-145.18;100.00;46570.53;5068813;28;20037;-73
2022/10/22 11:02:35;;;;;;;14.00;2.37;;;;;;;-145.18;100.00;46570.53;5069504;28;20045;-73
2022/10/22 11:05:23;;;;;;;15.63;3.07;;;;;;;-145.18;100.00;46586.16;5069446;28;20032;-73
2022/10/22 11:07:56;;;;;;;22.23;2.63;;;;;;;-145.18;100.00;46580.31;5053557;28;20043;-73
2022/10/22 11:10:51;;;;;;;18.07;2.87;;;;;;;-145.18;100.00;46574.44;5069318;28;20024;-73
2022/10/22 11:13:30;;;;;;;21.40;3.67;;;;;;;-145.18;100.00;46562.72;5060471;28;20472;-73
2022/10/22 11:16:09;;;;;;;14.90;2.30;;;;;;;-145.18;100.00;46570.53;5069394;28;20028;-73
2022/10/22 11:19:04;;;;;;;19.30;3.17;;;;;;;-145.18;100.00;46586.16;5069006;28;20099;-73